Time;durP1;ratioP1;P1;durP2;ratioP2;P2;SDS_P1;SDS_P2;PMS_P1;PMS_P2;Temp;Humidity;BMP_temperature;BMP_pressure;BME280_temperature;BME280_humidity;BME280_pressure;Samples;Min_cycle;Max_cycle;Signal;HPM_P1;HPM_P2
2021/09/11 00:00:47;;;;;;;10.00;7.15;;;;;;;;;;4917740;29;20276;-79
2021/09/11 00:03:12;;;;;;;11.25;8.40;;;;;;;;;;4921588;29;20020;-80
2021/09/11 00:05:37;;;;;;;9.75;6.90;;;;;;;;;;4921613;29;20047;-80
2021/09/11 00:08:03;;;;;;;9.07;7.50;;;;;;;;;;4926664;29;20489;-79
2021/09/11 00:10:30;;;;;;;11.20;7.78;;;;;;;;;;4921323;29;20051;-79
2021/09/11 00:12:55;;;;;;;10.75;8.25;;;;;;;;;;4928918;29;20114;-78
2021/09/11 00:15:20;;;;;;;9.27;7.67;;;;;;;;;;4927468;29;20159;-79
2021/09/11 00:17:47;;;;;;;10.80;8.07;;;;;;;;;;4929128;29;20479;-79
2021/09/11 00:20:13;;;;;;;9.52;7.93;;;;;;;;;;4927157;29;20268;-79
2021/09/11 00:22:38;;;;;;;10.30;7.80;;;;;;;;;;4929283;29;20869;-79
2021/09/11 00:25:04;;;;;;;9.10;7.60;;;;;;;;;;4931400;29;20044;-80
2021/09/11 00:27:29;;;;;;;10.55;8.00;;;;;;;;;;4928545;29;20233;-79
2021/09/11 00:29:55;;;;;;;10.60;7.90;;;;;;;;;;4925764;29;20038;-79
2021/09/11 00:32:20;;;;;;;9.70;7.88;;;;;;;;;;4924688;29;20043;-79
2021/09/11 00:34:45;;;;;;;10.18;7.80;;;;;;;;;;4926183;29;20027;-79
2021/09/11 00:37:10;;;;;;;10.93;8.20;;;;;;;;;;4924618;29;20024;-79
2021/09/11 00:39:36;;;;;;;9.82;7.00;;;;;;;;;;4924521;29;20027;-78
2021/09/11 00:42:02;;;;;;;8.93;7.43;;;;;;;;;;4923171;29;20020;-79
2021/09/11 00:44:27;;;;;;;14.00;7.32;;;;;;;;;;4923809;29;20016;-79
2021/09/11 00:46:53;;;;;;;9.43;7.32;;;;;;;;;;4928385;29;20104;-79
2021/09/11 00:49:18;;;;;;;11.30;8.00;;;;;;;;;;4929026;29;20095;-80
2021/09/11 00:51:44;;;;;;;11.00;7.63;;;;;;;;;;4925192;29;20055;-79
2021/09/11 00:54:10;;;;;;;9.35;7.18;;;;;;;;;;4929623;29;20028;-79
2021/09/11 00:56:35;;;;;;;8.50;7.25;;;;;;;;;;4927058;29;20020;-80
2021/09/11 00:59:01;;;;;;;10.25;7.35;;;;;;;;;;4925995;29;20023;-80
2021/09/11 01:01:26;;;;;;;10.00;7.82;;;;;;;;;;4921254;29;20015;-80
2021/09/11 01:03:52;;;;;;;10.27;8.10;;;;;;;;;;4922596;29;20023;-81
2021/09/11 01:06:18;;;;;;;10.25;7.18;;;;;;;;;;4927110;29;20047;-79
2021/09/11 01:08:43;;;;;;;11.10;7.55;;;;;;;;;;4926541;29;20028;-79
2021/09/11 01:11:09;;;;;;;9.27;7.00;;;;;;;;;;4924848;29;20024;-78
2021/09/11 01:13:34;;;;;;;10.02;7.68;;;;;;;;;;4928142;29;20116;-79
2021/09/11 01:16:00;;;;;;;11.25;7.65;;;;;;;;;;4924860;29;20036;-79
2021/09/11 01:18:26;;;;;;;9.90;7.30;;;;;;;;;;4907552;29;20491;-79
2021/09/11 01:20:51;;;;;;;10.63;7.95;;;;;;;;;;4929488;29;20098;-78
2021/09/11 01:23:16;;;;;;;9.98;7.55;;;;;;;;;;4931093;29;20020;-79
2021/09/11 01:25:42;;;;;;;10.88;7.60;;;;;;;;;;4927454;29;20031;-80
2021/09/11 01:28:07;;;;;;;50.83;45.33;;;;;;;;;;4927719;29;20051;-79
2021/09/11 01:30:32;;;;;;;19.88;17.77;;;;;;;;;;4928203;29;20027;-79
2021/09/11 01:32:58;;;;;;;11.80;8.85;;;;;;;;;;4924347;29;20116;-78
2021/09/11 01:35:23;;;;;;;11.23;8.00;;;;;;;;;;4919620;29;20131;-79
2021/09/11 01:37:48;;;;;;;10.85;8.35;;;;;;;;;;4921142;29;20082;-79
2021/09/11 01:40:14;;;;;;;9.33;6.77;;;;;;;;;;4922098;29;20017;-80
2021/09/11 01:42:39;;;;;;;9.52;6.70;;;;;;;;;;4917914;29;20773;-79
2021/09/11 01:45:08;;;;;;;10.80;7.75;;;;;;;;;;4928446;29;20027;-79
2021/09/11 01:47:34;;;;;;;9.57;7.35;;;;;;;;;;4930622;29;20435;-78
2021/09/11 01:49:59;;;;;;;10.32;7.55;;;;;;;;;;4929006;29;20028;-79
2021/09/11 01:52:24;;;;;;;9.63;7.40;;;;;;;;;;4919037;29;20024;-78
2021/09/11 01:54:50;;;;;;;11.43;7.97;;;;;;;;;;4928799;29;20087;-79
2021/09/11 01:57:15;;;;;;;9.73;7.37;;;;;;;;;;4926249;29;20074;-80
2021/09/11 01:59:41;;;;;;;10.27;7.38;;;;;;;;;;4928024;29;20638;-79
2021/09/11 02:02:07;;;;;;;12.93;8.00;;;;;;;;;;4924817;29;20019;-79
2021/09/11 02:04:33;;;;;;;8.05;7.18;;;;;;;;;;4926219;29;20447;-80
2021/09/11 02:06:58;;;;;;;8.82;7.00;;;;;;;;;;4922660;29;20111;-79
2021/09/11 02:09:24;;;;;;;9.50;6.88;;;;;;;;;;4928194;29;20024;-80
2021/09/11 02:11:49;;;;;;;11.38;7.88;;;;;;;;;;4925381;29;20055;-79
2021/09/11 02:14:14;;;;;;;9.70;7.30;;;;;;;;;;4923565;29;20083;-79
2021/09/11 02:16:40;;;;;;;8.18;6.75;;;;;;;;;;4923900;29;20111;-79
2021/09/11 02:19:05;;;;;;;9.10;7.35;;;;;;;;;;4920849;29;20482;-80
2021/09/11 02:21:30;;;;;;;9.52;7.30;;;;;;;;;;4922659;29;20020;-80
2021/09/11 02:23:56;;;;;;;11.48;6.95;;;;;;;;;;4920508;29;20026;-80
2021/09/11 02:26:21;;;;;;;9.43;7.50;;;;;;;;;;4923549;29;20059;-78
2021/09/11 02:28:47;;;;;;;9.68;6.53;;;;;;;;;;4926205;29;20024;-78
2021/09/11 02:31:12;;;;;;;10.27;7.60;;;;;;;;;;4925023;29;20553;-81
2021/09/11 02:33:38;;;;;;;9.98;6.43;;;;;;;;;;4923855;29;20754;-79
2021/09/11 02:36:03;;;;;;;9.70;7.70;;;;;;;;;;4926421;29;20031;-79
2021/09/11 02:38:29;;;;;;;8.73;6.65;;;;;;;;;;4926061;29;20027;-79
2021/09/11 02:40:54;;;;;;;7.93;6.30;;;;;;;;;;4927445;29;20024;-82
2021/09/11 02:43:19;;;;;;;9.37;6.83;;;;;;;;;;4919131;29;20264;-79
2021/09/11 02:45:44;;;;;;;10.30;7.73;;;;;;;;;;4926463;29;20156;-79
2021/09/11 02:48:09;;;;;;;11.90;7.27;;;;;;;;;;4912712;29;20026;-79
2021/09/11 02:50:35;;;;;;;10.93;6.53;;;;;;;;;;4923647;29;20274;-79
2021/09/11 02:53:00;;;;;;;8.73;7.20;;;;;;;;;;4923201;29;20032;-79
2021/09/11 02:55:25;;;;;;;7.17;6.03;;;;;;;;;;4921245;29;22524;-80
2021/09/11 02:57:50;;;;;;;11.93;6.65;;;;;;;;;;4922714;29;20111;-79
2021/09/11 03:00:16;;;;;;;9.20;6.97;;;;;;;;;;4926398;29;20039;-80
2021/09/11 03:02:41;;;;;;;8.45;7.32;;;;;;;;;;4920265;29;20021;-79
2021/09/11 03:05:06;;;;;;;11.57;6.93;;;;;;;;;;4923317;29;20043;-79
2021/09/11 03:07:32;;;;;;;8.90;6.53;;;;;;;;;;4925629;29;20023;-79
2021/09/11 03:09:57;;;;;;;10.37;6.90;;;;;;;;;;4924816;29;20022;-79
2021/09/11 03:12:22;;;;;;;9.00;7.20;;;;;;;;;;4919164;29;20775;-79
2021/09/11 03:14:47;;;;;;;9.17;6.80;;;;;;;;;;4916625;29;20715;-80
2021/09/11 03:17:13;;;;;;;8.25;6.78;;;;;;;;;;4918351;29;20323;-79
2021/09/11 03:19:38;;;;;;;9.90;7.07;;;;;;;;;;4920792;29;20114;-79
2021/09/11 03:22:03;;;;;;;10.85;7.63;;;;;;;;;;4923371;29;20047;-79
2021/09/11 03:24:29;;;;;;;9.80;7.45;;;;;;;;;;4922008;29;20024;-79
2021/09/11 03:26:55;;;;;;;10.40;7.03;;;;;;;;;;4920497;29;20028;-79
2021/09/11 03:29:20;;;;;;;10.93;7.88;;;;;;;;;;4921140;29;20540;-79
2021/09/11 03:31:45;;;;;;;11.00;7.40;;;;;;;;;;4919139;29;20024;-79
2021/09/11 03:34:11;;;;;;;9.90;6.97;;;;;;;;;;4924895;29;20815;-79
2021/09/11 03:36:36;;;;;;;9.33;7.00;;;;;;;;;;4918250;29;20107;-79
2021/09/11 03:39:01;;;;;;;8.25;7.03;;;;;;;;;;4921694;29;20059;-79
2021/09/11 03:41:27;;;;;;;8.90;6.72;;;;;;;;;;4926515;29;20027;-80
2021/09/11 03:43:52;;;;;;;9.10;7.40;;;;;;;;;;4926725;29;20034;-79
2021/09/11 03:46:18;;;;;;;8.40;6.60;;;;;;;;;;4919855;29;20255;-80
2021/09/11 03:48:43;;;;;;;8.90;6.90;;;;;;;;;;4918942;29;20020;-80
2021/09/11 03:51:08;;;;;;;9.47;6.80;;;;;;;;;;4919500;29;20028;-80
2021/09/11 03:53:33;;;;;;;8.07;6.20;;;;;;;;;;4921000;29;20020;-80
2021/09/11 03:55:59;;;;;;;8.52;7.25;;;;;;;;;;4922399;29;20055;-80
2021/09/11 03:58:24;;;;;;;10.20;7.50;;;;;;;;;;4923549;29;20108;-79
2021/09/11 04:00:49;;;;;;;9.35;7.07;;;;;;;;;;4926291;29;20058;-80
2021/09/11 04:03:14;;;;;;;8.07;6.10;;;;;;;;;;4927543;29;20502;-80
2021/09/11 04:05:40;;;;;;;8.27;6.97;;;;;;;;;;4924996;29;20044;-81
2021/09/11 04:08:05;;;;;;;9.57;7.88;;;;;;;;;;4922669;29;20028;-79
2021/09/11 04:10:30;;;;;;;11.18;6.97;;;;;;;;;;4903899;29;20171;-79
2021/09/11 04:12:55;;;;;;;9.97;6.83;;;;;;;;;;4919687;29;20020;-79
2021/09/11 04:15:21;;;;;;;7.37;6.50;;;;;;;;;;4920828;29;20034;-79
2021/09/11 04:17:46;;;;;;;9.20;6.60;;;;;;;;;;4927853;29;20055;-79
2021/09/11 04:20:11;;;;;;;11.37;7.57;;;;;;;;;;4920181;29;20115;-79
2021/09/11 04:22:37;;;;;;;9.68;6.95;;;;;;;;;;4925963;29;20331;-79
2021/09/11 04:25:03;;;;;;;8.02;6.93;;;;;;;;;;4922817;29;20023;-79
2021/09/11 04:27:28;;;;;;;8.48;6.57;;;;;;;;;;4925077;29;20486;-79
2021/09/11 04:29:53;;;;;;;8.40;6.97;;;;;;;;;;4922971;29;20115;-78
2021/09/11 04:32:19;;;;;;;8.97;6.10;;;;;;;;;;4927292;29;20322;-79
2021/09/11 04:34:44;;;;;;;7.77;6.63;;;;;;;;;;4917973;29;20986;-79
2021/09/11 04:37:09;;;;;;;9.48;6.65;;;;;;;;;;4921634;29;20110;-79
2021/09/11 04:39:34;;;;;;;9.67;7.73;;;;;;;;;;4917380;29;20019;-79
2021/09/11 04:42:00;;;;;;;7.85;6.32;;;;;;;;;;4921672;29;20318;-80
2021/09/11 04:44:27;;;;;;;12.27;7.17;;;;;;;;;;4907456;29;20016;-80
2021/09/11 04:46:52;;;;;;;10.90;6.45;;;;;;;;;;4926674;29;20382;-81
2021/09/11 04:49:18;;;;;;;7.63;5.80;;;;;;;;;;4924877;29;20032;-78
2021/09/11 04:51:43;;;;;;;11.10;7.70;;;;;;;;;;4922386;29;20098;-79
2021/09/11 04:54:08;;;;;;;8.38;6.35;;;;;;;;;;4925262;29;20414;-79
2021/09/11 04:56:33;;;;;;;8.30;6.77;;;;;;;;;;4924646;29;20031;-79
2021/09/11 04:58:59;;;;;;;9.65;6.90;;;;;;;;;;4924910;29;20035;-79
2021/09/11 05:01:24;;;;;;;8.60;6.78;;;;;;;;;;4922907;29;20052;-79
2021/09/11 05:03:49;;;;;;;8.73;6.83;;;;;;;;;;4930433;29;20027;-78
2021/09/11 05:06:15;;;;;;;8.65;6.32;;;;;;;;;;4923849;29;20020;-79
2021/09/11 05:08:40;;;;;;;8.32;6.18;;;;;;;;;;4907167;29;20035;-81
2021/09/11 05:11:07;;;;;;;8.52;7.07;;;;;;;;;;4923277;29;20032;-80
2021/09/11 05:13:33;;;;;;;11.23;6.47;;;;;;;;;;4924396;29;20427;-80
2021/09/11 05:15:58;;;;;;;9.20;6.85;;;;;;;;;;4938118;29;20020;-80
2021/09/11 05:18:23;;;;;;;8.00;6.00;;;;;;;;;;4931317;29;20024;-80
2021/09/11 05:20:48;;;;;;;9.53;6.43;;;;;;;;;;4926857;29;20031;-79
2021/09/11 05:23:14;;;;;;;9.87;6.23;;;;;;;;;;4929933;29;20268;-79
2021/09/11 05:25:39;;;;;;;15.13;7.90;;;;;;;;;;4928235;29;20111;-81
2021/09/11 05:28:04;;;;;;;21.27;17.40;;;;;;;;;;4928623;29;20314;-79
2021/09/11 05:30:29;;;;;;;16.90;13.50;;;;;;;;;;4928610;29;20032;-79
2021/09/11 05:32:54;;;;;;;7.77;6.40;;;;;;;;;;4925874;29;20027;-80
2021/09/11 05:35:20;;;;;;;6.57;5.37;;;;;;;;;;4917751;29;20035;-79
2021/09/11 05:37:45;;;;;;;9.40;5.30;;;;;;;;;;4925118;29;20280;-79
2021/09/11 05:40:10;;;;;;;8.38;5.15;;;;;;;;;;4928765;29;20028;-80
2021/09/11 05:42:36;;;;;;;8.98;5.40;;;;;;;;;;4926415;29;20020;-78
2021/09/11 05:45:05;;;;;;;7.07;5.50;;;;;;;;;;4911075;29;20480;-79
2021/09/11 05:47:31;;;;;;;9.20;5.23;;;;;;;;;;4922440;29;20480;-79
2021/09/11 05:49:57;;;;;;;7.50;5.63;;;;;;;;;;4918943;29;20366;-79
2021/09/11 05:52:23;;;;;;;5.43;4.65;;;;;;;;;;4920490;29;20035;-81
2021/09/11 05:54:49;;;;;;;8.52;5.00;;;;;;;;;;4920749;29;20415;-79
2021/09/11 05:57:14;;;;;;;7.10;4.80;;;;;;;;;;4922309;29;20111;-79
2021/09/11 05:59:40;;;;;;;7.20;4.85;;;;;;;;;;4927788;29;20063;-79
2021/09/11 06:02:06;;;;;;;7.43;4.95;;;;;;;;;;4924839;29;20031;-79
2021/09/11 06:04:31;;;;;;;7.13;4.70;;;;;;;;;;4922490;29;20406;-80
2021/09/11 06:06:56;;;;;;;8.05;4.72;;;;;;;;;;4924375;29;20483;-81
2021/09/11 06:09:22;;;;;;;6.90;4.97;;;;;;;;;;4921463;29;20034;-81
2021/09/11 06:11:47;;;;;;;5.40;4.17;;;;;;;;;;4922073;29;20550;-81
2021/09/11 06:14:12;;;;;;;7.90;4.45;;;;;;;;;;4926746;29;20055;-80
2021/09/11 06:16:37;;;;;;;7.90;4.73;;;;;;;;;;4905123;29;20122;-80
2021/09/11 06:19:03;;;;;;;7.13;5.50;;;;;;;;;;4912643;29;20830;-80
2021/09/11 06:21:28;;;;;;;6.75;4.80;;;;;;;;;;4928473;29;20111;-80
2021/09/11 06:23:53;;;;;;;6.10;4.37;;;;;;;;;;4918378;29;20703;-80
2021/09/11 06:26:18;;;;;;;7.00;4.40;;;;;;;;;;4917489;29;20048;-80
2021/09/11 06:28:44;;;;;;;5.40;3.78;;;;;;;;;;4922566;29;20271;-80
2021/09/11 06:31:09;;;;;;;4.77;3.93;;;;;;;;;;4916605;29;20036;-80
2021/09/11 06:33:34;;;;;;;5.32;3.95;;;;;;;;;;4925479;29;20020;-80
2021/09/11 06:36:00;;;;;;;3.42;3.13;;;;;;;;;;4923187;29;20020;-80
2021/09/11 06:38:25;;;;;;;5.13;3.50;;;;;;;;;;4926514;29;20130;-80
2021/09/11 06:40:50;;;;;;;5.35;3.85;;;;;;;;;;4924226;29;20070;-79
2021/09/11 06:43:16;;;;;;;6.85;3.33;;;;;;;;;;4923356;29;20015;-80
2021/09/11 06:45:41;;;;;;;8.35;4.05;;;;;;;;;;4923994;29;20084;-80
2021/09/11 06:48:06;;;;;;;4.70;3.30;;;;;;;;;;4928347;29;20458;-79
2021/09/11 06:50:32;;;;;;;4.70;3.65;;;;;;;;;;4919724;29;20920;-80
2021/09/11 06:52:57;;;;;;;3.50;2.97;;;;;;;;;;4916963;29;20670;-79
2021/09/11 06:55:22;;;;;;;6.20;3.30;;;;;;;;;;4918356;29;20345;-79
2021/09/11 06:57:48;;;;;;;4.03;3.63;;;;;;;;;;4923809;29;20354;-80
2021/09/11 07:00:13;;;;;;;5.67;3.53;;;;;;;;;;4926343;29;20051;-81
2021/09/11 07:02:38;;;;;;;5.97;3.38;;;;;;;;;;4926662;29;20775;-83
2021/09/11 07:05:04;;;;;;;7.30;3.40;;;;;;;;;;4920173;29;20044;-77
2021/09/11 07:07:31;;;;;;;4.22;2.90;;;;;;;;;;4920030;29;20039;-79
2021/09/11 07:09:56;;;;;;;5.43;3.33;;;;;;;;;;4917458;29;20020;-79
2021/09/11 07:12:22;;;;;;;3.50;2.83;;;;;;;;;;4923197;29;20464;-80
2021/09/11 07:14:48;;;;;;;5.50;3.13;;;;;;;;;;4910776;29;20076;-79
2021/09/11 07:17:13;;;;;;;3.45;2.75;;;;;;;;;;4925025;29;20047;-79
2021/09/11 07:19:39;;;;;;;3.27;2.97;;;;;;;;;;4918097;29;20055;-79
2021/09/11 07:22:04;;;;;;;3.70;2.73;;;;;;;;;;4925792;29;20103;-80
2021/09/11 07:24:29;;;;;;;7.32;2.58;;;;;;;;;;4924562;29;20068;-81
2021/09/11 07:26:55;;;;;;;4.97;3.13;;;;;;;;;;4924090;29;20051;-80
2021/09/11 07:29:20;;;;;;;6.70;3.53;;;;;;;;;;4918666;29;20046;-80
2021/09/11 07:31:45;;;;;;;11.40;4.83;;;;;;;;;;4916515;29;20031;-80
2021/09/11 07:34:11;;;;;;;5.83;3.40;;;;;;;;;;4916838;29;20351;-79
2021/09/11 07:36:36;;;;;;;6.72;3.60;;;;;;;;;;4915619;29;20474;-78
2021/09/11 07:39:02;;;;;;;8.30;4.53;;;;;;;;;;4902228;29;20084;-78
2021/09/11 07:41:27;;;;;;;7.75;3.80;;;;;;;;;;4916783;29;20030;-80
2021/09/11 07:43:52;;;;;;;4.87;2.90;;;;;;;;;;4923752;29;20087;-79
2021/09/11 07:46:18;;;;;;;7.87;3.60;;;;;;;;;;4920494;29;20816;-79
2021/09/11 07:48:43;;;;;;;5.63;3.33;;;;;;;;;;4927927;29;20618;-78
2021/09/11 07:51:08;;;;;;;6.65;3.70;;;;;;;;;;4924063;29;20375;-79
2021/09/11 07:53:33;;;;;;;11.40;2.77;;;;;;;;;;4924521;29;20746;-80
2021/09/11 07:56:00;;;;;;;5.32;2.72;;;;;;;;;;4922208;29;20082;-80
2021/09/11 07:58:25;;;;;;;5.28;3.05;;;;;;;;;;4914398;29;20537;-79
2021/09/11 08:00:52;;;;;;;8.88;3.17;;;;;;;;;;4918647;29;20028;-81
2021/09/11 08:03:17;;;;;;;4.78;2.80;;;;;;;;;;4914549;29;20107;-81
2021/09/11 08:05:43;;;;;;;4.93;2.80;;;;;;;;;;4922580;29;20583;-81
2021/09/11 08:08:08;;;;;;;4.37;2.60;;;;;;;;;;4921212;29;20111;-81
2021/09/11 08:10:33;;;;;;;5.57;2.90;;;;;;;;;;4919722;29;20808;-82
2021/09/11 08:12:59;;;;;;;4.47;3.00;;;;;;;;;;4923102;29;20035;-80
2021/09/11 08:15:24;;;;;;;5.43;2.90;;;;;;;;;;4920021;29;20024;-81
2021/09/11 08:17:49;;;;;;;4.28;2.67;;;;;;;;;;4921116;29;20279;-80
2021/09/11 08:20:15;;;;;;;4.43;2.90;;;;;;;;;;4919808;29;20094;-81
2021/09/11 08:22:40;;;;;;;5.25;3.22;;;;;;;;;;4918069;29;20019;-81
2021/09/11 08:25:06;;;;;;;3.05;2.75;;;;;;;;;;4921286;29;20163;-79
2021/09/11 08:27:31;;;;;;;5.00;3.13;;;;;;;;;;4918283;29;20046;-78
2021/09/11 08:29:56;;;;;;;3.83;2.80;;;;;;;;;;4916586;29;20681;-76
2021/09/11 08:32:22;;;;;;;4.45;3.03;;;;;;;;;;4915772;29;20276;-76
2021/09/11 08:34:47;;;;;;;5.40;3.08;;;;;;;;;;4919074;29;20035;-76
2021/09/11 08:37:12;;;;;;;3.85;2.25;;;;;;;;;;4922239;29;20119;-76
2021/09/11 08:39:38;;;;;;;5.53;2.93;;;;;;;;;;4924010;29;20043;-76
2021/09/11 08:42:03;;;;;;;3.85;2.75;;;;;;;;;;4927962;29;20297;-74
2021/09/11 08:44:29;;;;;;;6.97;3.00;;;;;;;;;;4923192;29;20028;-76
2021/09/11 08:46:55;;;;;;;5.22;3.08;;;;;;;;;;4925695;29;20087;-76
2021/09/11 08:49:21;;;;;;;3.85;2.40;;;;;;;;;;4917550;29;20016;-76
2021/09/11 08:51:46;;;;;;;5.40;2.95;;;;;;;;;;4918180;29;20380;-76
2021/09/11 08:54:18;;;;;;;3.90;3.00;;;;;;;;;;4919526;29;20028;-77
2021/09/11 08:56:44;;;;;;;2.85;2.55;;;;;;;;;;4922420;29;20078;-77
2021/09/11 08:59:11;;;;;;;3.75;2.45;;;;;;;;;;4919815;29;20114;-77
2021/09/11 09:01:37;;;;;;;4.55;2.90;;;;;;;;;;4925248;29;20435;-77
2021/09/11 09:04:02;;;;;;;3.03;2.65;;;;;;;;;;4906043;29;20095;-75
2021/09/11 09:06:29;;;;;;;4.55;3.28;;;;;;;;;;4919831;29;20489;-77
2021/09/11 09:08:57;;;;;;;4.43;3.05;;;;;;;;;;4924476;29;20039;-78
2021/09/11 09:11:27;;;;;;;4.55;3.08;;;;;;;;;;4919652;29;20042;-78
2021/09/11 09:14:05;;;;;;;3.88;2.63;;;;;;;;;;4923536;29;20555;-74
2021/09/11 09:16:32;;;;;;;3.03;2.53;;;;;;;;;;4920482;29;20032;-77
2021/09/11 09:18:58;;;;;;;4.75;2.78;;;;;;;;;;4925389;29;20645;-78
2021/09/11 09:21:24;;;;;;;3.92;2.38;;;;;;;;;;4906736;29;20008;-75
2021/09/11 09:23:57;;;;;;;4.93;2.70;;;;;;;;;;4927944;29;20422;-75
2021/09/11 09:26:23;;;;;;;3.42;2.17;;;;;;;;;;4926582;29;20061;-79
2021/09/11 09:28:58;;;;;;;3.63;2.20;;;;;;;;;;4910930;29;20031;-77
2021/09/11 09:31:24;;;;;;;3.05;2.20;;;;;;;;;;4924294;29;20418;-76
2021/09/11 09:33:49;;;;;;;5.07;2.27;;;;;;;;;;4924865;29;20031;-77
2021/09/11 09:36:16;;;;;;;6.40;2.53;;;;;;;;;;4923946;29;20774;-76
2021/09/11 09:38:44;;;;;;;2.75;2.10;;;;;;;;;;4921285;29;20022;-76
2021/09/11 09:41:10;;;;;;;4.70;2.10;;;;;;;;;;4918182;29;20043;-75
2021/09/11 09:43:40;;;;;;;2.83;2.17;;;;;;;;;;4924115;29;20795;-76
2021/09/11 09:46:07;;;;;;;6.75;2.40;;;;;;;;;;4928734;29;20382;-77
2021/09/11 09:48:34;;;;;;;5.03;2.75;;;;;;;;;;4927662;29;20023;-77
2021/09/11 09:51:04;;;;;;;2.40;2.10;;;;;;;;;;4927748;29;20090;-77
2021/09/11 09:53:29;;;;;;;7.50;2.85;;;;;;;;;;4928960;29;20505;-76
2021/09/11 09:55:55;;;;;;;3.10;2.08;;;;;;;;;;4927897;29;20064;-77
2021/09/11 09:58:20;;;;;;;2.38;2.17;;;;;;;;;;4921886;29;20019;-77
2021/09/11 10:00:46;;;;;;;5.03;3.23;;;;;;;;;;4915945;29;20357;-76
2021/09/11 10:03:12;;;;;;;4.97;2.63;;;;;;;;;;4920998;29;20431;-75
2021/09/11 10:05:40;;;;;;;3.47;1.90;;;;;;;;;;4916229;29;20570;-77
2021/09/11 10:08:07;;;;;;;3.75;2.60;;;;;;;;;;4917931;29;20403;-77
2021/09/11 10:10:38;;;;;;;3.28;2.20;;;;;;;;;;4918394;29;20696;-77
2021/09/11 10:13:05;;;;;;;3.38;2.83;;;;;;;;;;4915812;29;20379;-79
2021/09/11 10:15:35;;;;;;;4.30;2.88;;;;;;;;;;4917755;29;20438;-78
2021/09/11 10:18:01;;;;;;;5.95;3.13;;;;;;;;;;4919974;29;20402;-78
2021/09/11 10:20:27;;;;;;;3.50;2.60;;;;;;;;;;4919343;29;20012;-77
2021/09/11 10:23:21;;;;;;;5.00;2.85;;;;;;;;;;4924271;29;20470;-78
2021/09/11 10:25:47;;;;;;;4.80;3.53;;;;;;;;;;4906737;29;20335;-78
2021/09/11 10:28:12;;;;;;;5.13;2.88;;;;;;;;;;4920285;29;20080;-77
2021/09/11 10:30:56;;;;;;;3.45;2.80;;;;;;;;;;4920611;29;20103;-77
2021/09/11 10:33:37;;;;;;;4.10;2.85;;;;;;;;;;4920119;29;20374;-78
2021/09/11 10:36:03;;;;;;;3.20;2.50;;;;;;;;;;4918484;29;20419;-77
2021/09/11 10:38:39;;;;;;;3.45;2.80;;;;;;;;;;4917265;29;20016;-76
2021/09/11 10:41:14;;;;;;;5.25;3.42;;;;;;;;;;4917498;29;20384;-81
2021/09/11 10:43:59;;;;;;;6.75;3.40;;;;;;;;;;4923305;29;20399;-82
2021/09/11 10:46:44;;;;;;;5.65;3.15;;;;;;;;;;4919304;29;20471;-81
2021/09/11 10:49:28;;;;;;;6.00;2.95;;;;;;;;;;4923126;29;20103;-82
2021/09/11 10:52:02;;;;;;;5.63;3.30;;;;;;;;;;4928926;29;20415;-82
2021/09/11 10:54:32;;;;;;;8.48;3.88;;;;;;;;;;4919849;29;20032;-82
2021/09/11 10:57:00;;;;;;;9.50;3.03;;;;;;;;;;4938975;29;20451;-82
2021/09/11 10:59:26;;;;;;;5.57;2.30;;;;;;;;;;4913044;29;20418;-83
2021/09/11 11:01:55;;;;;;;4.25;2.72;;;;;;;;;;4926548;29;20662;-82
2021/09/11 11:04:24;;;;;;;4.25;2.58;;;;;;;;;;4928244;29;20327;-83
2021/09/11 11:06:50;;;;;;;2.50;2.00;;;;;;;;;;4919959;29;20168;-82
2021/09/11 11:09:18;;;;;;;3.15;2.22;;;;;;;;;;4921883;29;20370;-82
2021/09/11 11:11:43;;;;;;;4.00;2.50;;;;;;;;;;4922760;29;20046;-81
2021/09/11 11:14:12;;;;;;;4.68;2.78;;;;;;;;;;4925750;29;20020;-83
2021/09/11 11:16:44;;;;;;;5.60;2.55;;;;;;;;;;4926345;29;20290;-82
2021/09/11 11:19:09;;;;;;;6.00;2.90;;;;;;;;;;4914543;29;20032;-83
2021/09/11 11:21:36;;;;;;;6.45;3.38;;;;;;;;;;4923861;29;20379;-82
2021/09/11 11:24:01;;;;;;;6.13;3.50;;;;;;;;;;4922869;29;20383;-81
2021/09/11 11:26:27;;;;;;;8.07;3.58;;;;;;;;;;4928331;29;20031;-83
2021/09/11 11:28:52;;;;;;;11.85;4.15;;;;;;;;;;4932349;29;20415;-81
2021/09/11 11:31:18;;;;;;;6.97;4.00;;;;;;;;;;4924328;29;20024;-83
2021/09/11 11:33:44;;;;;;;11.57;5.10;;;;;;;;;;4921987;29;20032;-84
2021/09/11 11:36:09;;;;;;;15.70;4.55;;;;;;;;;;4921849;29;20370;-83
2021/09/11 11:38:34;;;;;;;7.97;4.00;;;;;;;;;;4921045;29;20119;-84
2021/09/11 11:41:04;;;;;;;18.97;10.83;;;;;;;;;;4927628;29;20015;-84
2021/09/11 11:43:33;;;;;;;12.48;4.43;;;;;;;;;;4929260;29;20019;-85
2021/09/11 11:45:58;;;;;;;9.93;5.45;;;;;;;;;;4934468;29;20028;-84
2021/09/11 11:48:24;;;;;;;9.18;4.13;;;;;;;;;;4937724;29;20039;-84
2021/09/11 11:50:49;;;;;;;9.50;3.65;;;;;;;;;;4941659;29;20058;-85
2021/09/11 11:53:16;;;;;;;8.25;4.13;;;;;;;;;;4935858;29;20278;-82
2021/09/11 11:55:52;;;;;;;7.82;3.83;;;;;;;;;;4918901;29;20087;-85
2021/09/11 11:58:19;;;;;;;26.15;13.30;;;;;;;;;;4923174;29;20422;-82
2021/09/11 12:00:48;;;;;;;20.48;9.98;;;;;;;;;;4926812;29;20030;-82
2021/09/11 12:03:32;;;;;;;10.85;5.03;;;;;;;;;;4903749;29;20020;-83
2021/09/11 12:05:58;;;;;;;9.82;4.65;;;;;;;;;;4925927;29;20079;-82
2021/09/11 12:08:23;;;;;;;5.47;3.50;;;;;;;;;;4916368;29;20104;-82
2021/09/11 12:10:53;;;;;;;5.63;3.10;;;;;;;;;;4922345;29;20055;-82
2021/09/11 12:13:19;;;;;;;5.95;3.25;;;;;;;;;;4924267;29;20596;-82
2021/09/11 12:15:46;;;;;;;5.45;3.63;;;;;;;;;;4924470;29;20032;-81
2021/09/11 12:18:15;;;;;;;5.93;3.20;;;;;;;;;;4918568;29;20472;-82
2021/09/11 12:20:40;;;;;;;4.70;3.00;;;;;;;;;;4909636;29;20414;-82
2021/09/11 12:23:07;;;;;;;3.15;2.70;;;;;;;;;;4921618;29;20064;-82
2021/09/11 12:26:05;;;;;;;4.53;2.80;;;;;;;;;;4919360;29;20096;-81
2021/09/11 12:28:31;;;;;;;5.22;3.15;;;;;;;;;;4870568;29;20371;-83
2021/09/11 12:30:56;;;;;;;7.00;3.30;;;;;;;;;;4910319;29;20034;-83
2021/09/11 12:33:22;;;;;;;5.15;3.72;;;;;;;;;;4918881;29;20032;-84
2021/09/11 12:35:47;;;;;;;3.58;2.55;;;;;;;;;;4921820;29;20036;-84
2021/09/11 12:38:13;;;;;;;4.47;2.65;;;;;;;;;;4922711;29;20024;-84
2021/09/11 12:40:38;;;;;;;4.47;2.77;;;;;;;;;;4917742;29;20020;-81
2021/09/11 12:43:03;;;;;;;34.83;31.67;;;;;;;;;;4919568;29;20032;-82
2021/09/11 12:45:29;;;;;;;9.90;7.67;;;;;;;;;;4901700;29;20092;-82
2021/09/11 12:47:54;;;;;;;4.87;3.33;;;;;;;;;;4917041;29;20478;-81
2021/09/11 12:50:21;;;;;;;4.93;3.10;;;;;;;;;;4921487;29;20028;-83
2021/09/11 12:52:46;;;;;;;5.50;3.13;;;;;;;;;;4919469;29;20031;-80
2021/09/11 12:55:11;;;;;;;4.07;3.27;;;;;;;;;;4913781;29;20024;-80
2021/09/11 12:57:37;;;;;;;5.43;2.90;;;;;;;;;;4920235;29;20011;-81
2021/09/11 13:00:03;;;;;;;4.85;2.47;;;;;;;;;;4921802;29;20035;-80
2021/09/11 13:02:28;;;;;;;4.15;2.75;;;;;;;;;;4922374;29;20493;-80
2021/09/11 13:04:55;;;;;;;3.87;3.03;;;;;;;;;;4920790;29;20663;-81
2021/09/11 13:07:20;;;;;;;3.95;2.60;;;;;;;;;;4920658;29;20028;-82
2021/09/11 13:09:46;;;;;;;4.73;3.10;;;;;;;;;;4919179;29;20024;-80
2021/09/11 13:12:11;;;;;;;4.25;2.90;;;;;;;;;;4914780;29;20311;-81
2021/09/11 13:14:37;;;;;;;3.83;2.53;;;;;;;;;;4915214;29;20032;-81
2021/09/11 13:17:04;;;;;;;4.43;2.40;;;;;;;;;;4922358;29;20466;-80
2021/09/11 13:19:29;;;;;;;3.58;2.45;;;;;;;;;;4914628;29;20024;-80
2021/09/11 13:21:54;;;;;;;2.38;2.03;;;;;;;;;;4923911;29;20027;-79
2021/09/11 13:24:20;;;;;;;3.43;2.40;;;;;;;;;;4921045;29;20024;-78
2021/09/11 13:26:45;;;;;;;3.43;2.20;;;;;;;;;;4906864;29;20047;-81
2021/09/11 13:29:11;;;;;;;3.38;2.40;;;;;;;;;;4923035;29;20841;-79
2021/09/11 13:31:36;;;;;;;5.33;2.47;;;;;;;;;;4916931;29;20048;-79
2021/09/11 13:34:01;;;;;;;6.32;2.92;;;;;;;;;;4922216;29;20032;-79
2021/09/11 13:36:27;;;;;;;3.90;2.60;;;;;;;;;;4922879;29;20494;-81
2021/09/11 13:38:52;;;;;;;7.95;2.85;;;;;;;;;;4923540;29;20020;-79
2021/09/11 13:41:19;;;;;;;4.22;3.05;;;;;;;;;;4918597;29;20024;-79
2021/09/11 13:43:45;;;;;;;4.25;2.47;;;;;;;;;;4919337;29;20538;-79
2021/09/11 13:46:10;;;;;;;4.13;2.50;;;;;;;;;;4914932;29;20160;-78
2021/09/11 13:48:36;;;;;;;4.50;2.50;;;;;;;;;;4914417;29;20020;-80
2021/09/11 13:51:02;;;;;;;4.25;2.92;;;;;;;;;;4917741;29;20612;-77
2021/09/11 13:53:27;;;;;;;3.77;2.47;;;;;;;;;;4919192;29;20038;-79
2021/09/11 13:55:53;;;;;;;3.50;2.35;;;;;;;;;;4922750;29;20560;-79
2021/09/11 13:58:19;;;;;;;7.38;2.63;;;;;;;;;;4919300;29;20020;-79
2021/09/11 14:00:44;;;;;;;5.60;3.10;;;;;;;;;;4922672;29;20021;-79
2021/09/11 14:03:09;;;;;;;5.38;2.80;;;;;;;;;;4917921;29;20309;-78
2021/09/11 14:05:35;;;;;;;4.07;2.73;;;;;;;;;;4920504;29;20035;-79
2021/09/11 14:08:00;;;;;;;6.63;2.90;;;;;;;;;;4922756;29;20264;-79
2021/09/11 14:10:25;;;;;;;3.75;2.65;;;;;;;;;;4920292;29;20031;-79
2021/09/11 14:12:51;;;;;;;4.38;2.55;;;;;;;;;;4922601;29;20071;-79
2021/09/11 14:15:19;;;;;;;5.30;2.80;;;;;;;;;;4917428;29;20025;-80
2021/09/11 14:17:44;;;;;;;4.95;2.97;;;;;;;;;;4917799;29;20028;-80
2021/09/11 14:20:10;;;;;;;3.57;2.70;;;;;;;;;;4913010;29;20087;-79
2021/09/11 14:22:35;;;;;;;2.97;2.38;;;;;;;;;;4914210;29;20542;-79
2021/09/11 14:25:00;;;;;;;4.18;2.70;;;;;;;;;;4912788;29;20028;-79
2021/09/11 14:27:26;;;;;;;4.97;2.97;;;;;;;;;;4921531;29;20024;-79
2021/09/11 14:29:52;;;;;;;3.78;3.03;;;;;;;;;;4921802;29;20484;-78
2021/09/11 14:32:18;;;;;;;7.97;4.03;;;;;;;;;;4917564;29;20023;-79
2021/09/11 14:34:44;;;;;;;3.92;3.10;;;;;;;;;;4914260;29;20477;-78